Time;durP1;ratioP1;P1;durP2;ratioP2;P2;SDS_P1;SDS_P2;PMS_P1;PMS_P2;Temp;Humidity;BMP_temperature;BMP_pressure;BME280_temperature;BME280_humidity;BME280_pressure;Samples;Min_cycle;Max_cycle;Signal;HPM_P1;HPM_P2
2022/11/18 00:01:18;;;;;;;;;;;7.20;99.90;;;;;;5088418;28;20301;-68
2022/11/18 00:03:44;;;;;;;;;;;7.10;99.90;;;;;;5090912;28;19938;-68
2022/11/18 00:06:10;;;;;;;;;;;7.10;99.90;;;;;;5077327;28;20314;-68
2022/11/18 00:08:36;;;;;;;;;;;7.20;99.90;;;;;;5125602;27;19920;-68
2022/11/18 00:11:05;;;;;;;;;;;7.10;99.90;;;;;;5136917;27;19927;-68
2022/11/18 00:16:15;;;;;;;;;;;7.10;99.90;;;;;;5102222;27;20342;-68
2022/11/18 00:18:40;;;;;;;;;;;7.10;99.90;;;;;;5095473;27;20006;-68
2022/11/18 00:21:07;;;;;;;;;;;7.20;99.90;;;;;;5098445;28;20001;-68
2022/11/18 00:23:33;;;;;;;;;;;7.20;99.90;;;;;;5097830;28;19973;-69
2022/11/18 00:26:05;;;;;;;;;;;7.00;99.90;;;;;;5102942;28;19920;-68
2022/11/18 00:28:31;;;;;;;;;;;7.10;99.90;;;;;;5108671;27;20362;-68
2022/11/18 00:31:01;;;;;;;;;;;7.10;99.90;;;;;;5137615;27;20002;-69
2022/11/18 00:33:26;;;;;;;;;;;7.20;99.90;;;;;;5102240;28;19920;-67
2022/11/18 00:35:52;;;;;;;;;;;7.00;99.90;;;;;;5104628;28;19934;-69
2022/11/18 00:38:18;;;;;;;;;;;7.10;99.90;;;;;;5098019;28;20713;-69
2022/11/18 00:40:43;;;;;;;;;;;7.00;99.90;;;;;;5097233;27;19931;-69
2022/11/18 00:43:09;;;;;;;;;;;7.20;99.90;;;;;;5106707;28;19920;-68
2022/11/18 00:45:34;;;;;;;;;;;7.00;99.90;;;;;;5099735;27;19984;-68
2022/11/18 00:47:59;;;;;;;;;;;7.10;99.90;;;;;;5107873;27;19924;-69
2022/11/18 00:50:25;;;;;;;;;;;7.10;99.90;;;;;;5101475;27;19930;-68
2022/11/18 00:52:51;;;;;;;;;;;7.10;99.90;;;;;;5106025;28;20181;-69
2022/11/18 00:55:16;;;;;;;;;;;7.00;99.90;;;;;;5096538;28;19926;-68
2022/11/18 00:57:42;;;;;;;;;;;7.00;99.90;;;;;;5097836;28;19994;-68
2022/11/18 01:00:08;;;;;;;;;;;7.10;99.90;;;;;;5094628;28;20024;-68
2022/11/18 01:02:33;;;;;;;;;;;6.90;99.90;;;;;;5101028;28;19963;-68
2022/11/18 01:04:59;;;;;;;;;;;7.00;99.90;;;;;;5104655;28;19977;-68
2022/11/18 01:07:24;;;;;;;;;;;6.90;99.90;;;;;;5104457;28;19923;-68
2022/11/18 01:09:49;;;;;;;;;;;6.90;99.90;;;;;;5106386;28;20057;-69
2022/11/18 01:14:59;;;;;;;;;;;7.00;99.90;;;;;;5098765;28;19979;-68
2022/11/18 01:17:25;;;;;;;;;;;6.90;99.90;;;;;;5104486;28;19924;-68
2022/11/18 01:19:50;;;;;;;;;;;6.90;99.90;;;;;;5096454;28;19928;-68
2022/11/18 01:22:16;;;;;;;;;;;6.80;99.90;;;;;;5101360;28;19920;-68
2022/11/18 01:24:41;;;;;;;;;;;6.90;99.90;;;;;;5103710;28;20015;-68
2022/11/18 01:27:06;;;;;;;;;;;6.90;99.90;;;;;;5107889;28;19919;-68
2022/11/18 01:29:32;;;;;;;;;;;6.90;99.90;;;;;;5087610;28;20551;-68
2022/11/18 01:31:57;;;;;;;;;;;6.80;99.90;;;;;;5099046;28;20137;-68
2022/11/18 01:34:23;;;;;;;;;;;6.90;99.90;;;;;;5094020;28;19924;-69
2022/11/18 01:36:50;;;;;;;;;;;6.80;99.90;;;;;;5091976;28;19966;-68
2022/11/18 01:39:16;;;;;;;;;;;6.80;99.90;;;;;;5091011;28;19939;-68
2022/11/18 01:41:41;;;;;;;;;;;6.70;99.90;;;;;;5098183;28;19924;-68
2022/11/18 01:44:25;;;;;;;;;;;6.80;99.90;;;;;;5105408;28;19926;-68
2022/11/18 01:46:51;;;;;;;;;;;6.80;99.90;;;;;;5100265;28;20306;-68
2022/11/18 01:49:17;;;;;;;;;;;6.90;99.90;;;;;;5097893;28;19924;-68
2022/11/18 01:51:48;;;;;;;;;;;6.80;99.90;;;;;;5093413;28;19963;-68
2022/11/18 01:54:17;;;;;;;;;;;6.80;99.90;;;;;;5102798;28;19940;-67
2022/11/18 01:56:45;;;;;;;;;;;6.80;99.90;;;;;;5096520;28;19931;-68
2022/11/18 01:59:12;;;;;;;;;;;6.70;99.90;;;;;;5137881;27;19920;-68
2022/11/18 02:01:38;;;;;;;;;;;6.70;99.90;;;;;;5129636;27;19923;-68
2022/11/18 02:04:04;;;;;;;;;;;6.70;99.90;;;;;;5105792;28;20267;-68
2022/11/18 02:06:29;;;;;;;;;;;6.80;99.90;;;;;;5130866;27;19919;-67
2022/11/18 02:08:55;;;;;;;;;;;6.70;99.90;;;;;;5100686;28;19970;-69
2022/11/18 02:14:06;;;;;;;;;;;6.80;99.90;;;;;;5097853;28;19943;-68
2022/11/18 02:16:55;;;;;;;;;;;6.80;99.90;;;;;;5098119;28;19963;-68
2022/11/18 02:19:24;;;;;;;;;;;6.80;99.90;;;;;;5105163;28;19932;-67
2022/11/18 02:22:09;;;;;;;;;;;6.80;99.90;;;;;;5105354;28;19946;-68
2022/11/18 02:24:49;;;;;;;;;;;6.90;99.90;;;;;;5104196;28;19978;-68
2022/11/18 02:27:42;;;;;;;;;;;6.80;99.90;;;;;;5108280;28;19954;-67
2022/11/18 02:30:10;;;;;;;;;;;6.90;99.90;;;;;;5100943;28;19930;-67
2022/11/18 02:32:52;;;;;;;;;;;7.00;99.90;;;;;;5147208;27;20402;-68
2022/11/18 02:35:23;;;;;;;;;;;7.10;99.90;;;;;;5095910;28;19969;-68
2022/11/18 02:37:48;;;;;;;;;;;7.20;99.90;;;;;;5109465;28;19923;-68
2022/11/18 02:40:17;;;;;;;;;;;7.20;99.90;;;;;;5102262;28;20463;-69
2022/11/18 02:42:43;;;;;;;;;;;7.30;99.90;;;;;;5104868;28;19924;-68
2022/11/18 02:45:12;;;;;;;;;;;7.30;99.90;;;;;;5143343;27;19927;-68
2022/11/18 02:47:38;;;;;;;;;;;7.40;99.90;;;;;;5108691;28;20324;-68
2022/11/18 02:50:11;;;;;;;;;;;7.40;99.90;;;;;;5108153;28;19920;-68
2022/11/18 02:52:38;;;;;;;;;;;7.50;99.90;;;;;;5108636;27;19920;-68
2022/11/18 02:55:06;;;;;;;;;;;7.60;99.90;;;;;;5102757;28;20037;-68
2022/11/18 02:57:32;;;;;;;;;;;7.60;99.90;;;;;;5129658;27;20454;-68
2022/11/18 02:59:57;;;;;;;;;;;7.60;99.90;;;;;;5102278;28;19978;-68
2022/11/18 03:02:23;;;;;;;;;;;7.60;99.90;;;;;;5095523;28;19967;-67
2022/11/18 03:04:50;;;;;;;;;;;7.60;99.90;;;;;;5098091;28;19919;-67
2022/11/18 03:07:15;;;;;;;;;;;7.60;99.90;;;;;;5101565;28;19971;-67
2022/11/18 03:09:43;;;;;;;;;;;7.60;99.90;;;;;;5110749;28;20374;-68
2022/11/18 03:12:31;;;;;;;;;;;7.60;99.90;;;;;;5098671;27;19966;-68
2022/11/18 03:15:02;;;;;;;;;;;7.70;99.90;;;;;;5091322;28;19981;-67
2022/11/18 03:17:37;;;;;;;;;;;7.60;99.90;;;;;;5098070;28;20316;-68
2022/11/18 03:20:11;;;;;;;;;;;7.70;99.90;;;;;;5136107;27;20252;-68
2022/11/18 03:22:45;;;;;;;;;;;7.70;99.90;;;;;;5103277;28;19924;-67
2022/11/18 03:25:14;;;;;;;;;;;7.70;99.90;;;;;;5103193;28;19927;-69
2022/11/18 03:27:49;;;;;;;;;;;7.60;99.90;;;;;;5115055;27;20405;-67
2022/11/18 03:30:17;;;;;;;;;;;7.70;99.90;;;;;;5097780;28;20369;-68
2022/11/18 03:32:46;;;;;;;;;;;7.70;99.90;;;;;;5115601;27;19933;-68
2022/11/18 03:35:14;;;;;;;;;;;7.60;99.90;;;;;;5132688;27;19932;-68
2022/11/18 03:37:40;;;;;;;;;;;7.70;99.90;;;;;;5139039;27;20374;-68
2022/11/18 03:40:10;;;;;;;;;;;7.70;99.90;;;;;;5138281;27;20000;-69
2022/11/18 03:42:38;;;;;;;;;;;7.60;99.90;;;;;;5081279;27;19920;-68
2022/11/18 03:45:24;;;;;;;;;;;7.70;99.90;;;;;;5130002;27;20285;-68
2022/11/18 03:47:52;;;;;;;;;;;7.60;99.90;;;;;;5093615;28;20260;-68
2022/11/18 03:50:24;;;;;;;;;;;7.60;99.90;;;;;;5099551;28;19935;-68
2022/11/18 03:52:51;;;;;;;;;;;7.70;99.90;;;;;;5109264;28;19926;-68
2022/11/18 03:55:19;;;;;;;;;;;7.70;99.90;;;;;;5099339;27;20022;-69
2022/11/18 03:58:03;;;;;;;;;;;7.70;99.90;;;;;;5099388;28;19930;-69
2022/11/18 04:00:32;;;;;;;;;;;7.70;99.90;;;;;;5101820;28;19923;-69
2022/11/18 04:02:57;;;;;;;;;;;7.70;99.90;;;;;;5107593;28;19995;-69
2022/11/18 04:05:23;;;;;;;;;;;7.70;99.90;;;;;;5095852;28;20551;-67
2022/11/18 04:07:51;;;;;;;;;;;7.60;99.90;;;;;;5137775;27;19927;-69
2022/11/18 04:10:23;;;;;;;;;;;7.60;99.90;;;;;;5077402;28;19927;-68
2022/11/18 04:12:52;;;;;;;;;;;7.60;99.90;;;;;;5086042;28;19932;-67
2022/11/18 04:15:17;;;;;;;;;;;7.70;99.90;;;;;;5066262;28;20328;-68
2022/11/18 04:17:43;;;;;;;;;;;7.70;99.90;;;;;;5089395;28;19932;-67
2022/11/18 04:20:17;;;;;;;;;;;7.70;99.90;;;;;;5077911;28;20381;-68
2022/11/18 04:22:43;;;;;;;;;;;7.60;99.90;;;;;;5085121;28;19974;-67
2022/11/18 04:25:08;;;;;;;;;;;7.70;99.90;;;;;;5093082;28;20382;-68
2022/11/18 04:27:33;;;;;;;;;;;7.70;99.90;;;;;;5120273;27;20359;-68
2022/11/18 04:29:59;;;;;;;;;;;7.60;99.90;;;;;;5084341;28;19920;-68
2022/11/18 04:32:24;;;;;;;;;;;7.60;99.90;;;;;;5115387;27;19920;-68
2022/11/18 04:34:50;;;;;;;;;;;7.60;99.90;;;;;;5082176;28;19969;-68
2022/11/18 04:37:15;;;;;;;;;;;7.70;99.90;;;;;;5085596;28;19969;-68
2022/11/18 04:39:41;;;;;;;;;;;7.70;99.90;;;;;;5085559;28;19931;-67
2022/11/18 04:42:06;;;;;;;;;;;7.70;99.90;;;;;;5080614;28;19967;-67
2022/11/18 04:44:33;;;;;;;;;;;7.70;99.90;;;;;;5092416;28;19923;-68
2022/11/18 04:47:00;;;;;;;;;;;7.70;99.90;;;;;;5117150;27;19927;-67
2022/11/18 04:49:26;;;;;;;;;;;7.70;99.90;;;;;;5091125;28;20010;-67
2022/11/18 04:51:51;;;;;;;;;;;7.70;99.90;;;;;;5090453;28;20019;-67
2022/11/18 04:54:17;;;;;;;;;;;7.70;99.90;;;;;;5083405;28;20477;-68
2022/11/18 04:56:43;;;;;;;;;;;7.80;99.90;;;;;;5112162;27;20030;-68
2022/11/18 04:59:09;;;;;;;;;;;7.70;99.90;;;;;;5091692;28;19924;-68
2022/11/18 05:01:34;;;;;;;;;;;7.70;99.90;;;;;;5079983;28;19923;-68
2022/11/18 05:04:00;;;;;;;;;;;7.70;99.90;;;;;;5090668;28;19927;-68
2022/11/18 05:06:26;;;;;;;;;;;7.70;99.90;;;;;;5082888;28;19970;-68
2022/11/18 05:08:52;;;;;;;;;;;7.70;99.90;;;;;;5096988;28;19963;-67
2022/11/18 05:14:02;;;;;;;;;;;7.70;99.90;;;;;;5106318;28;20339;-68
2022/11/18 05:16:27;;;;;;;;;;;7.70;99.90;;;;;;5105370;28;20010;-68
2022/11/18 05:18:53;;;;;;;;;;;7.70;99.90;;;;;;5098293;28;20386;-67
2022/11/18 05:21:18;;;;;;;;;;;7.80;99.90;;;;;;5100460;28;19946;-66
2022/11/18 05:23:44;;;;;;;;;;;7.70;99.90;;;;;;5103258;28;20203;-68
2022/11/18 05:26:10;;;;;;;;;;;7.80;99.90;;;;;;5104109;28;19919;-67
2022/11/18 05:28:35;;;;;;;;;;;7.70;99.90;;;;;;5107971;28;20294;-69
2022/11/18 05:31:08;;;;;;;;;;;7.80;99.90;;;;;;5138515;27;19935;-68
2022/11/18 05:33:33;;;;;;;;;;;7.80;99.90;;;;;;5108448;27;19923;-68
2022/11/18 05:36:06;;;;;;;;;;;7.80;99.90;;;;;;5105174;28;19926;-68
2022/11/18 05:38:32;;;;;;;;;;;7.70;99.90;;;;;;5097342;28;19924;-67
2022/11/18 05:40:58;;;;;;;;;;;7.70;99.90;;;;;;5097667;28;19927;-67
2022/11/18 05:43:23;;;;;;;;;;;7.80;99.90;;;;;;5096726;28;20003;-66
2022/11/18 05:45:49;;;;;;;;;;;7.80;99.90;;;;;;5107807;28;20293;-68
2022/11/18 05:48:16;;;;;;;;;;;7.70;99.90;;;;;;5095385;27;19936;-68
2022/11/18 05:50:44;;;;;;;;;;;7.80;99.90;;;;;;5102552;28;19928;-68
2022/11/18 05:53:10;;;;;;;;;;;7.80;99.90;;;;;;5131087;27;20286;-67
2022/11/18 05:55:39;;;;;;;;;;;7.70;99.90;;;;;;5111163;28;19923;-67
2022/11/18 05:58:04;;;;;;;;;;;7.70;99.90;;;;;;5102866;28;19932;-68
2022/11/18 06:00:31;;;;;;;;;;;7.70;99.90;;;;;;5109150;27;19928;-67
2022/11/18 06:02:57;;;;;;;;;;;7.80;99.90;;;;;;5127612;27;20061;-67
2022/11/18 06:05:23;;;;;;;;;;;7.80;99.90;;;;;;5135031;27;20026;-67
2022/11/18 06:07:48;;;;;;;;;;;7.60;99.90;;;;;;5092192;28;20315;-67
2022/11/18 06:10:16;;;;;;;;;;;7.60;99.90;;;;;;5086936;28;20061;-67
2022/11/18 06:12:44;;;;;;;;;;;7.60;99.90;;;;;;5095349;28;19975;-67
2022/11/18 06:15:11;;;;;;;;;;;7.70;99.90;;;;;;5079701;27;19960;-67
2022/11/18 06:17:42;;;;;;;;;;;7.70;99.90;;;;;;5080893;28;20010;-67
2022/11/18 06:20:08;;;;;;;;;;;7.60;99.90;;;;;;5078877;28;19924;-67
2022/11/18 06:22:33;;;;;;;;;;;7.70;99.90;;;;;;5062306;28;20778;-67
2022/11/18 06:24:59;;;;;;;;;;;7.70;99.90;;;;;;5083292;28;19923;-67
2022/11/18 06:27:25;;;;;;;;;;;7.60;99.90;;;;;;5075369;28;20397;-68
2022/11/18 06:29:50;;;;;;;;;;;7.60;99.90;;;;;;5118684;27;19928;-68
2022/11/18 06:32:16;;;;;;;;;;;7.70;99.90;;;;;;5116579;27;19964;-68
2022/11/18 06:34:41;;;;;;;;;;;7.60;99.90;;;;;;5085107;28;19955;-66
2022/11/18 06:37:19;;;;;;;;;;;7.60;99.90;;;;;;5122903;27;19955;-68
2022/11/18 06:39:44;;;;;;;;;;;7.60;99.90;;;;;;5081106;28;19927;-67
2022/11/18 06:42:10;;;;;;;;;;;7.60;99.90;;;;;;5096182;28;19920;-67
2022/11/18 06:44:35;;;;;;;;;;;7.60;99.90;;;;;;5089101;28;19931;-67
2022/11/18 06:47:02;;;;;;;;;;;7.70;99.90;;;;;;5117187;27;19924;-67
2022/11/18 06:49:28;;;;;;;;;;;7.60;99.90;;;;;;5095492;28;19930;-67
2022/11/18 06:51:53;;;;;;;;;;;7.60;99.90;;;;;;5084901;28;19928;-67
2022/11/18 06:54:19;;;;;;;;;;;7.70;99.90;;;;;;5089646;28;20003;-67
2022/11/18 06:56:45;;;;;;;;;;;7.60;99.90;;;;;;5094292;28;19924;-64
2022/11/18 06:59:10;;;;;;;;;;;7.70;99.90;;;;;;5123156;27;19927;-65
2022/11/18 07:01:37;;;;;;;;;;;7.60;99.90;;;;;;5080435;27;19924;-65
2022/11/18 07:04:02;;;;;;;;;;;7.60;99.90;;;;;;5082677;28;20006;-65
2022/11/18 07:06:29;;;;;;;;;;;7.70;99.90;;;;;;5073383;28;20676;-65
2022/11/18 07:08:55;;;;;;;;;;;7.70;99.90;;;;;;5083571;28;20372;-65
2022/11/18 07:11:22;;;;;;;;;;;7.70;99.90;;;;;;5095098;28;19924;-65
2022/11/18 07:13:47;;;;;;;;;;;7.70;99.90;;;;;;5092317;28;19923;-65
2022/11/18 07:16:18;;;;;;;;;;;7.60;99.90;;;;;;5098529;27;20442;-65
2022/11/18 07:18:44;;;;;;;;;;;7.60;99.90;;;;;;5093627;27;19927;-65
2022/11/18 07:21:11;;;;;;;;;;;7.70;99.90;;;;;;5097355;27;20370;-64
2022/11/18 07:23:36;;;;;;;;;;;7.70;99.90;;;;;;5099576;28;19931;-65
2022/11/18 07:26:02;;;;;;;;;;;7.60;99.90;;;;;;5099324;28;19920;-65
2022/11/18 07:28:27;;;;;;;;;;;7.60;99.90;;;;;;5096728;28;20425;-65
2022/11/18 07:31:03;;;;;;;;;;;7.60;99.90;;;;;;5094760;27;20250;-65
2022/11/18 07:33:29;;;;;;;;;;;7.60;99.90;;;;;;5127378;27;19928;-65
2022/11/18 07:35:55;;;;;;;;;;;7.60;99.90;;;;;;5080477;28;19972;-64
2022/11/18 07:38:20;;;;;;;;;;;7.60;99.90;;;;;;5094276;28;19981;-65
2022/11/18 07:40:46;;;;;;;;;;;7.60;99.90;;;;;;5091695;27;19969;-64
2022/11/18 07:43:11;;;;;;;;;;;7.60;99.90;;;;;;5125541;27;19927;-65
2022/11/18 07:45:36;;;;;;;;;;;7.60;99.90;;;;;;5094507;27;19923;-65
2022/11/18 07:48:02;;;;;;;;;;;7.50;99.90;;;;;;5093695;28;19926;-65
2022/11/18 07:50:27;;;;;;;;;;;7.60;99.90;;;;;;5095574;27;19924;-65
2022/11/18 07:52:56;;;;;;;;;;;7.60;99.90;;;;;;5089220;28;19931;-64
2022/11/18 07:55:22;;;;;;;;;;;7.50;99.90;;;;;;5123445;27;20010;-65
2022/11/18 07:57:47;;;;;;;;;;;7.50;99.90;;;;;;5091565;28;20361;-65
2022/11/18 08:00:13;;;;;;;;;;;7.50;99.90;;;;;;5091207;28;19999;-65
2022/11/18 08:02:38;;;;;;;;;;;7.60;99.90;;;;;;5092331;28;19955;-65
2022/11/18 08:05:04;;;;;;;;;;;7.50;99.90;;;;;;5092515;27;19924;-64
2022/11/18 08:07:29;;;;;;;;;;;7.50;99.90;;;;;;5089443;28;19920;-65
2022/11/18 08:09:55;;;;;;;;;;;7.50;99.90;;;;;;5076452;28;20289;-65
2022/11/18 08:12:20;;;;;;;;;;;7.60;99.90;;;;;;5075937;28;19923;-65
2022/11/18 08:14:46;;;;;;;;;;;7.60;99.90;;;;;;5075076;28;19920;-65
2022/11/18 08:17:11;;;;;;;;;;;7.60;99.90;;;;;;5113833;27;19946;-65
2022/11/18 08:19:37;;;;;;;;;;;7.60;99.90;;;;;;5103908;27;22261;-65
2022/11/18 08:22:02;;;;;;;;;;;7.50;99.90;;;;;;5070745;28;20309;-65
2022/11/18 08:24:28;;;;;;;;;;;7.60;99.90;;;;;;5079109;28;19920;-65
2022/11/18 08:26:53;;;;;;;;;;;7.60;99.90;;;;;;5076491;27;19920;-66
2022/11/18 08:29:19;;;;;;;;;;;7.60;99.90;;;;;;5076695;28;19919;-65
2022/11/18 08:31:44;;;;;;;;;;;7.60;99.90;;;;;;5077353;28;19931;-65
2022/11/18 08:34:11;;;;;;;;;;;7.60;99.90;;;;;;5071799;28;19924;-65
2022/11/18 08:36:37;;;;;;;;;;;7.60;99.90;;;;;;5070512;28;19934;-64
2022/11/18 08:39:05;;;;;;;;;;;7.60;99.90;;;;;;5073855;28;19939;-66
2022/11/18 08:41:31;;;;;;;;;;;7.70;99.90;;;;;;5079220;28;20019;-65
2022/11/18 08:43:57;;;;;;;;;;;7.70;99.90;;;;;;5078963;28;19920;-66
2022/11/18 08:46:22;;;;;;;;;;;7.60;99.90;;;;;;5074835;28;19927;-64
2022/11/18 08:48:48;;;;;;;;;;;7.60;99.90;;;;;;5073648;28;19924;-65
2022/11/18 08:51:14;;;;;;;;;;;7.70;99.90;;;;;;5109516;27;19947;-65
2022/11/18 08:53:40;;;;;;;;;;;7.70;99.90;;;;;;5077339;28;19935;-65
2022/11/18 08:56:06;;;;;;;;;;;7.60;99.90;;;;;;5109593;27;21059;-66
2022/11/18 08:58:31;;;;;;;;;;;7.70;99.90;;;;;;5074281;28;19927;-65
2022/11/18 09:00:57;;;;;;;;;;;7.60;99.90;;;;;;5075834;28;20405;-64
2022/11/18 09:03:22;;;;;;;;;;;7.60;99.90;;;;;;5072754;28;19920;-65
2022/11/18 09:05:48;;;;;;;;;;;7.70;99.90;;;;;;5079447;28;20074;-65
2022/11/18 09:08:14;;;;;;;;;;;7.70;99.90;;;;;;5083612;28;20362;-65
2022/11/18 09:10:40;;;;;;;;;;;7.70;99.90;;;;;;5093108;28;20324;-64
2022/11/18 09:13:06;;;;;;;;;;;7.70;99.90;;;;;;5092810;28;19927;-66
2022/11/18 09:15:31;;;;;;;;;;;7.70;99.90;;;;;;5089615;28;19935;-64
2022/11/18 09:17:56;;;;;;;;;;;7.80;99.90;;;;;;5098247;28;19939;-65
2022/11/18 09:20:22;;;;;;;;;;;7.70;99.90;;;;;;5096502;28;20418;-64
2022/11/18 09:22:48;;;;;;;;;;;7.70;99.90;;;;;;5093595;28;19926;-65
2022/11/18 09:25:13;;;;;;;;;;;7.80;99.90;;;;;;5094367;28;20294;-65
2022/11/18 09:27:39;;;;;;;;;;;7.70;99.90;;;;;;5092176;28;19938;-65
2022/11/18 09:30:04;;;;;;;;;;;7.70;99.90;;;;;;5092176;28;19927;-65
2022/11/18 09:32:31;;;;;;;;;;;7.70;99.90;;;;;;5130313;27;19935;-65
2022/11/18 09:34:56;;;;;;;;;;;7.70;99.90;;;;;;5099490;28;20112;-65
2022/11/18 09:37:22;;;;;;;;;;;7.60;99.90;;;;;;5089321;28;20023;-65
2022/11/18 09:39:47;;;;;;;;;;;7.70;99.90;;;;;;5096173;28;19931;-65
2022/11/18 09:42:25;;;;;;;;;;;7.70;99.90;;;;;;5086940;28;19928;-66
2022/11/18 09:45:11;;;;;;;;;;;7.70;99.90;;;;;;5084908;28;20268;-65
2022/11/18 09:47:37;;;;;;;;;;;7.60;99.90;;;;;;5081938;28;19935;-65
2022/11/18 09:50:04;;;;;;;;;;;7.70;99.90;;;;;;5095264;28;20362;-64
2022/11/18 09:52:38;;;;;;;;;;;7.70;99.90;;;;;;5111766;28;19924;-65
2022/11/18 09:55:14;;;;;;;;;;;7.70;99.90;;;;;;5097644;28;19924;-64
2022/11/18 09:57:45;;;;;;;;;;;7.60;99.90;;;;;;5088280;28;19943;-65
2022/11/18 10:00:17;;;;;;;;;;;7.70;99.90;;;;;;5097848;28;20334;-65
2022/11/18 10:02:56;;;;;;;;;;;7.60;99.90;;;;;;5101162;28;19930;-65
2022/11/18 10:05:23;;;;;;;;;;;7.70;99.90;;;;;;5136242;27;20186;-65
2022/11/18 10:07:55;;;;;;;;;;;7.60;99.90;;;;;;5096373;28;20023;-65
2022/11/18 10:10:30;;;;;;;;;;;7.60;99.90;;;;;;5098273;28;20482;-65
2022/11/18 10:13:02;;;;;;;;;;;7.60;99.90;;;;;;5079482;28;19924;-65
2022/11/18 10:15:32;;;;;;;;;;;7.70;99.90;;;;;;5101592;28;19923;-66
2022/11/18 10:18:04;;;;;;;;;;;7.70;99.90;;;;;;5080415;28;20031;-65
2022/11/18 10:20:45;;;;;;;;;;;7.70;99.90;;;;;;5076253;28;20319;-65
2022/11/18 10:23:29;;;;;;;;;;;7.70;99.90;;;;;;5077721;28;20550;-65
2022/11/18 10:25:55;;;;;;;;;;;7.80;99.90;;;;;;5075010;28;19930;-65
2022/11/18 10:28:25;;;;;;;;;;;7.90;99.90;;;;;;5115189;28;19927;-65
2022/11/18 10:30:51;;;;;;;;;;;7.90;99.90;;;;;;5107720;27;20069;-66
2022/11/18 10:33:24;;;;;;;;;;;7.90;99.90;;;;;;5115823;27;20376;-65
2022/11/18 10:35:50;;;;;;;;;;;8.00;99.90;;;;;;5095695;28;19924;-65
2022/11/18 10:38:19;;;;;;;;;;;8.10;99.90;;;;;;5100422;28;19931;-65
2022/11/18 10:40:46;;;;;;;;;;;8.00;99.90;;;;;;5113891;27;19935;-65
2022/11/18 10:43:12;;;;;;;;;;;8.00;99.90;;;;;;5111862;27;19935;-65
2022/11/18 10:45:38;;;;;;;;;;;8.10;99.90;;;;;;5086598;28;19927;-64
2022/11/18 10:48:12;;;;;;;;;;;8.00;99.90;;;;;;5107296;28;19920;-65
2022/11/18 10:50:39;;;;;;;;;;;8.00;99.90;;;;;;5083240;28;19943;-66
2022/11/18 10:53:06;;;;;;;;;;;8.00;99.90;;;;;;5095238;28;19924;-65
2022/11/18 10:55:32;;;;;;;;;;;8.00;99.90;;;;;;5086147;28;19928;-65
2022/11/18 10:58:06;;;;;;;;;;;7.90;99.90;;;;;;5081840;28;19927;-65
2022/11/18 11:00:36;;;;;;;;;;;7.90;99.90;;;;;;5109336;27;20014;-65
2022/11/18 11:03:19;;;;;;;;;;;8.00;99.90;;;;;;5073833;28;20018;-65
2022/11/18 11:05:44;;;;;;;;;;;8.00;99.90;;;;;;5109355;28;20382;-65
2022/11/18 11:08:22;;;;;;;;;;;8.00;99.90;;;;;;5091857;28;19920;-65
2022/11/18 11:10:55;;;;;;;;;;;7.90;99.90;;;;;;5103976;28;19919;-64
2022/11/18 11:13:22;;;;;;;;;;;7.80;99.90;;;;;;5094247;28;20022;-64
2022/11/18 11:15:51;;;;;;;;;;;7.90;99.90;;;;;;5111295;28;20005;-65
2022/11/18 11:21:30;;;;;;;;;;;7.90;99.90;;;;;;5091265;28;19927;-65
2022/11/18 11:23:56;;;;;;;;;;;7.80;99.90;;;;;;5092699;28;19935;-65
2022/11/18 11:26:22;;;;;;;;;;;7.80;99.90;;;;;;5083944;28;20011;-65
2022/11/18 11:29:00;;;;;;;;;;;7.80;99.90;;;;;;5093401;28;20003;-65
2022/11/18 11:31:34;;;;;;;;;;;7.70;99.90;;;;;;5124795;27;20390;-66
2022/11/18 11:34:03;;;;;;;;;;;7.70;99.90;;;;;;5141378;27;19923;-65
2022/11/18 11:36:47;;;;;;;;;;;7.60;99.90;;;;;;5091815;28;19924;-65
2022/11/18 11:39:25;;;;;;;;;;;7.60;99.90;;;;;;5105038;28;20428;-64
2022/11/18 11:41:58;;;;;;;;;;;7.70;99.90;;;;;;5091661;28;19924;-65
2022/11/18 11:44:30;;;;;;;;;;;7.60;99.90;;;;;;5105523;28;19928;-65
2022/11/18 11:49:59;;;;;;;;;;;7.80;99.90;;;;;;5096585;27;19969;-65
2022/11/18 11:52:32;;;;;;;;;;;7.80;99.90;;;;;;5082697;28;19928;-65
2022/11/18 11:55:20;;;;;;;;;;;7.80;99.90;;;;;;5110647;28;20318;-65
2022/11/18 11:57:57;;;;;;;;;;;7.70;99.90;;;;;;5135536;27;20295;-65
2022/11/18 12:00:22;;;;;;;;;;;7.70;99.90;;;;;;5092036;28;19920;-65
2022/11/18 12:02:55;;;;;;;;;;;7.80;99.90;;;;;;5089566;28;19921;-66
2022/11/18 12:05:20;;;;;;;;;;;7.70;99.90;;;;;;5124300;27;19943;-66
2022/11/18 12:08:05;;;;;;;;;;;7.70;99.90;;;;;;5084502;28;19920;-64
2022/11/18 12:10:49;;;;;;;;;;;7.60;99.90;;;;;;5078187;28;19948;-66
2022/11/18 12:13:23;;;;;;;;;;;7.50;99.90;;;;;;5072650;28;19974;-65
2022/11/18 12:15:57;;;;;;;;;;;7.40;99.90;;;;;;5087127;28;21269;-63
2022/11/18 12:18:31;;;;;;;;;;;7.40;99.90;;;;;;5062935;28;19928;-65
2022/11/18 12:20:56;;;;;;;;;;;7.30;99.90;;;;;;5073757;28;19931;-64
2022/11/18 12:23:25;;;;;;;;;;;7.30;99.90;;;;;;5072565;28;19957;-65
2022/11/18 12:25:58;;;;;;;;;;;7.30;99.90;;;;;;5089966;28;20599;-65
2022/11/18 12:28:24;;;;;;;;;;;7.30;99.90;;;;;;5095989;28;19928;-65
2022/11/18 12:31:10;;;;;;;;;;;7.20;99.90;;;;;;5082922;28;19927;-66
2022/11/18 12:33:41;;;;;;;;;;;7.20;99.90;;;;;;5125191;27;19931;-64
2022/11/18 12:36:06;;;;;;;;;;;7.20;99.90;;;;;;5126509;27;20366;-65
2022/11/18 12:38:32;;;;;;;;;;;7.20;99.90;;;;;;5083281;28;19920;-65
2022/11/18 12:40:57;;;;;;;;;;;7.20;99.90;;;;;;5089938;28;19993;-67
2022/11/18 12:43:47;;;;;;;;;;;7.20;99.90;;;;;;5079147;28;20366;-65
2022/11/18 12:46:25;;;;;;;;;;;7.10;99.90;;;;;;5085354;28;19922;-65
2022/11/18 12:48:50;;;;;;;;;;;7.10;99.90;;;;;;5091519;28;19978;-65
2022/11/18 12:51:17;;;;;;;;;;;7.20;99.90;;;;;;5092088;28;19971;-65
2022/11/18 12:53:53;;;;;;;;;;;7.10;99.90;;;;;;5075996;28;20011;-66
2022/11/18 12:56:23;;;;;;;;;;;7.10;99.90;;;;;;5114039;27;19955;-66
2022/11/18 12:58:51;;;;;;;;;;;7.00;99.90;;;;;;5073127;28;19920;-65
2022/11/18 13:01:21;;;;;;;;;;;7.00;99.90;;;;;;5088502;28;19973;-65
2022/11/18 13:03:46;;;;;;;;;;;7.00;99.90;;;;;;5109908;27;19970;-66
2022/11/18 13:06:21;;;;;;;;;;;7.00;99.90;;;;;;5072236;28;19985;-65
2022/11/18 13:08:56;;;;;;;;;;;7.00;99.90;;;;;;5118980;27;19928;-65
2022/11/18 13:19:41;;;;;;;;;;;6.80;99.90;;;;;;5123850;27;20369;-64
2022/11/18 13:25:00;;;;;;;;;;;6.80;99.90;;;;;;5091804;27;20381;-65
2022/11/18 13:27:44;;;;;;;;;;;6.70;99.90;;;;;;5093361;28;19961;-64
2022/11/18 13:30:11;;;;;;;;;;;6.60;99.90;;;;;;5098588;28;19964;-65
2022/11/18 13:32:41;;;;;;;;;;;6.60;99.90;;;;;;5097130;28;20312;-64
2022/11/18 13:35:10;;;;;;;;;;;6.60;99.90;;;;;;5130898;27;19935;-64
2022/11/18 13:37:46;;;;;;;;;;;6.50;99.90;;;;;;5095408;28;19934;-65
2022/11/18 13:40:22;;;;;;;;;;;6.50;99.90;;;;;;5136059;27;19928;-64
2022/11/18 13:42:48;;;;;;;;;;;6.40;99.90;;;;;;5103886;28;20382;-64
2022/11/18 13:45:13;;;;;;;;;;;6.50;99.90;;;;;;5091556;28;19920;-66
2022/11/18 13:47:42;;;;;;;;;;;6.50;99.90;;;;;;5129820;27;20022;-65
2022/11/18 13:50:14;;;;;;;;;;;6.50;99.90;;;;;;5137036;27;20210;-65
2022/11/18 13:52:58;;;;;;;;;;;6.40;99.90;;;;;;5091284;28;19927;-66
2022/11/18 13:55:25;;;;;;;;;;;6.40;99.90;;;;;;5104567;28;19972;-65
2022/11/18 13:57:52;;;;;;;;;;;6.40;99.90;;;;;;5103958;28;19928;-65
2022/11/18 14:00:22;;;;;;;;;;;6.50;99.90;;;;;;5137519;27;20263;-65
2022/11/18 14:02:52;;;;;;;;;;;6.30;99.90;;;;;;5105087;28;19934;-65
2022/11/18 14:05:18;;;;;;;;;;;6.30;99.90;;;;;;5103007;28;19936;-66
2022/11/18 14:07:54;;;;;;;;;;;6.30;99.90;;;;;;5100649;28;19947;-66
2022/11/18 14:10:27;;;;;;;;;;;6.30;99.90;;;;;;5077835;27;19924;-67
2022/11/18 14:12:57;;;;;;;;;;;6.20;99.90;;;;;;5102176;27;19928;-64
2022/11/18 14:15:29;;;;;;;;;;;6.30;99.90;;;;;;5081359;28;20359;-66
2022/11/18 14:17:55;;;;;;;;;;;6.30;99.90;;;;;;5110559;27;19974;-65
2022/11/18 14:20:21;;;;;;;;;;;6.20;99.90;;;;;;5080028;27;20011;-65
2022/11/18 14:22:50;;;;;;;;;;;6.20;99.90;;;;;;5080456;28;19927;-64
2022/11/18 14:25:15;;;;;;;;;;;6.20;99.90;;;;;;5098388;27;19920;-65
2022/11/18 14:27:51;;;;;;;;;;;6.20;99.90;;;;;;5090645;28;19996;-65
2022/11/18 14:30:22;;;;;;;;;;;6.20;99.90;;;;;;5121025;27;19920;-64
2022/11/18 14:33:07;;;;;;;;;;;6.30;99.90;;;;;;5083720;28;19973;-64
2022/11/18 14:35:32;;;;;;;;;;;6.20;99.90;;;;;;5088946;28;19992;-64
2022/11/18 14:37:58;;;;;;;;;;;6.20;99.90;;;;;;5081230;28;19927;-67
2022/11/18 14:40:23;;;;;;;;;;;6.20;99.90;;;;;;5095284;28;20412;-64
2022/11/18 14:42:48;;;;;;;;;;;6.20;99.90;;;;;;5082982;28;19965;-62
2022/11/18 14:45:14;;;;;;;;;;;6.10;99.90;;;;;;5094650;28;19919;-65
2022/11/18 14:47:40;;;;;;;;;;;6.10;99.90;;;;;;5083836;28;19920;-65
2022/11/18 14:50:12;;;;;;;;;;;6.00;99.90;;;;;;5109556;28;19930;-65
2022/11/18 14:52:37;;;;;;;;;;;5.90;99.90;;;;;;5114068;27;19973;-64
2022/11/18 14:55:03;;;;;;;;;;;5.80;99.90;;;;;;5091637;28;19919;-64
2022/11/18 14:57:28;;;;;;;;;;;5.80;99.90;;;;;;5080698;27;20015;-64
2022/11/18 14:59:54;;;;;;;;;;;5.70;99.90;;;;;;5087378;28;19956;-63
2022/11/18 15:02:19;;;;;;;;;;;5.70;99.90;;;;;;5083318;28;19920;-65
2022/11/18 15:04:45;;;;;;;;;;;5.60;99.90;;;;;;5081440;28;19919;-67
2022/11/18 15:07:12;;;;;;;;;;;5.60;99.90;;;;;;5100020;27;20046;-65